createdAt,value
2018-10-21T00:02:06.891Z,22.67
2018-10-21T00:04:35.753Z,22.73
2018-10-21T00:07:04.397Z,24.87
2018-10-21T00:09:33.042Z,21.43
2018-10-21T00:12:01.728Z,22.07
2018-10-21T00:14:30.355Z,25.00
2018-10-21T00:16:59.062Z,21.23
2018-10-21T00:19:28.022Z,22.87
2018-10-21T00:21:56.692Z,22.60
2018-10-21T00:24:25.399Z,23.60
2018-10-21T00:26:54.149Z,20.10
2018-10-21T00:29:23.135Z,22.40
2018-10-21T00:31:51.754Z,19.40
2018-10-21T00:34:20.396Z,20.03
2018-10-21T00:36:49.063Z,19.90
2018-10-21T00:39:17.944Z,20.13
2018-10-21T00:41:46.741Z,18.93
2018-10-21T00:44:15.430Z,16.77
2018-10-21T00:46:44.154Z,21.70
2018-10-21T00:49:12.778Z,19.33
2018-10-21T00:51:41.447Z,18.40
2018-10-21T00:54:14.065Z,19.83
2018-10-21T00:56:43.393Z,17.40
2018-10-21T00:59:12.024Z,20.67
2018-10-21T01:01:40.893Z,19.47
2018-10-21T01:04:10.231Z,18.17
2018-10-21T01:06:39.552Z,17.83
2018-10-21T01:09:11.477Z,18.27
2018-10-21T01:11:41.453Z,19.20
2018-10-21T01:14:10.793Z,18.40
2018-10-21T01:16:39.555Z,18.27
2018-10-21T01:19:08.453Z,19.07
2018-10-21T01:21:37.465Z,18.87
2018-10-21T01:24:07.542Z,14.50
2018-10-21T01:26:36.161Z,15.40
2018-10-21T01:29:05.159Z,15.53
2018-10-21T01:31:34.661Z,18.73
2018-10-21T01:34:03.384Z,16.57
2018-10-21T01:36:32.344Z,18.20
2018-10-21T01:39:01.737Z,16.13
2018-10-21T01:41:30.791Z,16.63
2018-10-21T01:43:59.681Z,20.63
2018-10-21T01:46:28.367Z,17.70
2018-10-21T01:48:57.056Z,15.30
2018-10-21T01:51:25.689Z,16.57
2018-10-21T01:53:54.337Z,21.10
2018-10-21T01:56:22.998Z,24.77
2018-10-21T01:58:51.694Z,18.13
2018-10-21T02:01:20.563Z,23.73
2018-10-21T02:03:49.267Z,23.87
2018-10-21T02:06:17.877Z,19.67
2018-10-21T02:08:46.510Z,22.33
2018-10-21T02:11:15.122Z,20.33
2018-10-21T02:13:43.851Z,20.07
2018-10-21T02:16:12.504Z,16.73
2018-10-21T02:18:41.838Z,20.23
2018-10-21T02:21:10.920Z,16.43
2018-10-21T02:23:39.702Z,18.30
2018-10-21T02:26:08.386Z,20.27
2018-10-21T02:28:37.011Z,18.43
2018-10-21T02:31:05.746Z,16.10
2018-10-21T02:33:34.457Z,22.63
2018-10-21T02:36:03.362Z,22.30
2018-10-21T02:38:32.093Z,18.33
2018-10-21T02:41:22.105Z,23.43
2018-10-21T02:43:51.172Z,22.13
2018-10-21T02:46:21.069Z,20.80
2018-10-21T02:48:50.117Z,19.87
2018-10-21T02:51:18.938Z,20.07
2018-10-21T02:53:47.737Z,17.43
2018-10-21T02:56:16.412Z,20.40
2018-10-21T02:58:45.055Z,20.70
2018-10-21T03:01:13.707Z,20.53
2018-10-21T03:03:42.595Z,19.20
2018-10-21T03:06:11.319Z,15.50
2018-10-21T03:08:40.425Z,19.00
2018-10-21T03:11:09.085Z,17.33
2018-10-21T03:13:37.710Z,22.80
2018-10-21T03:16:06.914Z,20.97
2018-10-21T03:18:35.569Z,19.07
2018-10-21T03:21:04.969Z,21.57
2018-10-21T03:23:34.349Z,25.03
2018-10-21T03:26:03.857Z,17.03
2018-10-21T03:28:33.000Z,20.67
2018-10-21T03:31:01.936Z,20.43
2018-10-21T03:33:30.984Z,16.80
2018-10-21T03:35:59.871Z,17.17
2018-10-21T03:38:28.574Z,21.73
2018-10-21T03:40:57.630Z,20.13
2018-10-21T03:43:26.293Z,21.93
2018-10-21T03:45:55.053Z,24.33
2018-10-21T03:48:24.033Z,22.80
2018-10-21T03:50:52.760Z,24.27
2018-10-21T03:53:21.401Z,23.03
2018-10-21T03:55:50.089Z,19.37
2018-10-21T03:58:18.726Z,22.60
2018-10-21T04:00:47.429Z,19.37
2018-10-21T04:03:16.054Z,22.17
2018-10-21T04:05:44.729Z,19.53
2018-10-21T04:08:13.505Z,23.20
2018-10-21T04:10:42.175Z,18.20
2018-10-21T04:13:10.801Z,19.10
2018-10-21T04:15:39.513Z,24.33
2018-10-21T04:18:08.142Z,15.47
2018-10-21T04:20:36.851Z,21.27
2018-10-21T04:23:05.841Z,18.67
2018-10-21T04:25:35.490Z,24.60
2018-10-21T04:28:05.193Z,22.23
2018-10-21T04:30:35.170Z,20.83
2018-10-21T04:34:07.975Z,21.47
2018-10-21T04:36:36.836Z,20.13
2018-10-21T04:39:44.148Z,22.17
2018-10-21T04:42:12.789Z,21.13
2018-10-21T04:44:41.485Z,25.00
2018-10-21T04:47:10.247Z,24.17
2018-10-21T04:49:39.108Z,25.17
2018-10-21T04:52:07.879Z,23.47
2018-10-21T04:54:37.068Z,25.27
2018-10-21T04:57:07.829Z,21.10
2018-10-21T04:59:37.800Z,27.80
2018-10-21T05:02:07.231Z,21.77
2018-10-21T05:04:36.005Z,18.60
2018-10-21T05:07:05.098Z,21.00
2018-10-21T05:09:33.775Z,23.17
2018-10-21T05:12:02.417Z,19.83
2018-10-21T05:14:31.152Z,21.63
2018-10-21T05:16:59.842Z,21.43
2018-10-21T05:19:28.534Z,22.97
2018-10-21T05:21:57.414Z,24.47
2018-10-21T05:24:26.264Z,25.20
2018-10-21T05:26:55.980Z,26.17
2018-10-21T05:29:24.638Z,23.80
2018-10-21T05:31:53.257Z,26.93
2018-10-21T05:34:21.944Z,29.50
2018-10-21T05:36:51.444Z,29.40
2018-10-21T05:39:20.810Z,27.83
2018-10-21T05:41:50.183Z,25.17
2018-10-21T05:44:19.565Z,31.47
2018-10-21T05:46:50.541Z,30.40
2018-10-21T05:49:19.284Z,29.33
2018-10-21T05:51:49.441Z,33.77
2018-10-21T05:54:19.622Z,31.80
2018-10-21T05:56:49.572Z,31.90
2018-10-21T05:59:18.754Z,35.80
2018-10-21T06:01:48.053Z,27.87
2018-10-21T06:04:18.023Z,24.23
2018-10-21T06:06:46.826Z,25.87
2018-10-21T06:09:15.904Z,26.70
2018-10-21T06:11:44.945Z,33.13
2018-10-21T06:14:13.634Z,33.60
2018-10-21T06:16:48.315Z,28.40
2018-10-21T06:19:20.582Z,29.67
2018-10-21T06:21:49.473Z,24.20
2018-10-21T06:24:18.230Z,22.57
2018-10-21T06:26:47.518Z,20.70
2018-10-21T06:29:16.160Z,21.67
2018-10-21T06:31:44.806Z,25.67
2018-10-21T06:34:13.586Z,22.83
2018-10-21T06:36:42.345Z,19.90
2018-10-21T06:39:11.445Z,19.57
2018-10-21T06:41:40.796Z,19.43
2018-10-21T06:44:09.533Z,24.90
2018-10-21T06:46:38.961Z,28.33
2018-10-21T06:49:07.798Z,23.93
2018-10-21T06:51:36.624Z,26.70
2018-10-21T06:54:05.823Z,21.97
2018-10-21T06:56:34.680Z,25.80
2018-10-21T06:59:03.513Z,24.57
2018-10-21T07:01:33.920Z,27.93
2018-10-21T07:04:05.186Z,22.37
2018-10-21T07:06:34.300Z,23.77
2018-10-21T07:09:05.303Z,21.67
2018-10-21T07:11:34.083Z,27.00
2018-10-21T07:14:02.742Z,23.50
2018-10-21T07:16:32.819Z,23.10
2018-10-21T07:19:01.735Z,22.20
2018-10-21T07:21:30.581Z,24.77
2018-10-21T07:23:59.305Z,27.13
2018-10-21T07:26:27.989Z,24.43
2018-10-21T07:28:57.316Z,22.77
2018-10-21T07:31:26.329Z,18.17
2018-10-21T07:33:55.071Z,21.63
2018-10-21T07:36:23.827Z,22.53
2018-10-21T07:38:52.715Z,48.70
2018-10-21T07:41:21.615Z,37.53
2018-10-21T07:43:50.385Z,18.53
2018-10-21T07:46:19.123Z,24.60
2018-10-21T07:48:47.981Z,18.70
2018-10-21T07:51:16.608Z,90.43
2018-10-21T07:53:45.260Z,26.47
2018-10-21T07:56:13.910Z,30.30
2018-10-21T07:58:42.787Z,37.40
2018-10-21T08:01:12.057Z,54.27
2018-10-21T08:03:40.934Z,48.53
2018-10-21T08:06:23.953Z,22.13
2018-10-21T08:08:52.753Z,70.67
2018-10-21T08:11:21.533Z,143.47
2018-10-21T08:13:50.331Z,64.10
2018-10-21T08:16:19.169Z,17.23
2018-10-21T08:18:47.936Z,18.57
2018-10-21T08:21:16.876Z,19.33
2018-10-21T08:23:45.750Z,20.40
2018-10-21T08:26:14.504Z,23.07
2018-10-21T08:28:43.402Z,27.47
2018-10-21T08:31:13.154Z,68.37
2018-10-21T08:33:42.494Z,36.23
2018-10-21T08:36:11.325Z,161.00
2018-10-21T08:38:40.016Z,26.67
2018-10-21T08:41:09.050Z,27.50
2018-10-21T08:43:38.034Z,437.40
2018-10-21T08:46:06.816Z,34.13
2018-10-21T08:48:36.630Z,23.63
2018-10-21T08:51:05.511Z,24.07
2018-10-21T08:53:34.214Z,19.10
2018-10-21T08:56:03.887Z,18.63
2018-10-21T08:58:33.504Z,65.37
2018-10-21T09:01:02.283Z,28.63
2018-10-21T09:03:30.938Z,20.53
2018-10-21T09:05:59.650Z,61.37
2018-10-21T09:08:28.330Z,20.60
2018-10-21T09:10:57.018Z,16.47
2018-10-21T09:13:25.858Z,18.97
2018-10-21T09:15:55.023Z,21.90
2018-10-21T09:18:23.997Z,16.20
2018-10-21T09:20:52.874Z,16.73
2018-10-21T09:23:21.546Z,15.33
2018-10-21T09:25:50.778Z,20.33
2018-10-21T09:28:19.486Z,19.67
2018-10-21T09:30:48.209Z,17.37
2018-10-21T09:33:16.884Z,56.20
2018-10-21T09:35:45.903Z,38.27
2018-10-21T09:38:15.142Z,15.77
2018-10-21T09:40:43.920Z,19.13
2018-10-21T09:43:12.644Z,19.63
2018-10-21T09:45:41.524Z,18.63
2018-10-21T09:48:10.239Z,14.73
2018-10-21T09:50:39.014Z,14.40
2018-10-21T09:53:08.006Z,15.73
2018-10-21T09:55:36.907Z,14.67
2018-10-21T09:58:06.020Z,15.47
2018-10-21T10:00:40.926Z,14.73
2018-10-21T10:03:09.873Z,14.37
2018-10-21T10:05:38.506Z,17.57
2018-10-21T10:08:07.214Z,21.60
2018-10-21T10:10:36.129Z,13.20
2018-10-21T10:13:04.906Z,16.07
2018-10-21T10:15:33.816Z,27.30
2018-10-21T10:18:02.536Z,17.10
2018-10-21T10:20:31.208Z,13.43
2018-10-21T10:22:59.889Z,14.40
2018-10-21T10:25:28.530Z,19.13
2018-10-21T10:27:57.354Z,14.07
2018-10-21T10:30:26.349Z,19.00
2018-10-21T10:32:55.286Z,17.23
2018-10-21T10:35:23.999Z,12.43
2018-10-21T10:37:52.655Z,18.90
2018-10-21T10:40:21.390Z,11.20
2018-10-21T10:42:50.063Z,11.10
2018-10-21T10:45:18.729Z,12.57
2018-10-21T10:47:48.489Z,12.17
2018-10-21T10:50:17.206Z,11.47
2018-10-21T10:52:46.044Z,30.20
2018-10-21T10:55:14.959Z,26.43
2018-10-21T10:57:43.671Z,11.60
2018-10-21T11:00:12.925Z,13.73
2018-10-21T11:02:41.897Z,12.63
2018-10-21T11:05:11.821Z,12.83
2018-10-21T11:07:40.482Z,37.37
2018-10-21T11:10:10.021Z,27.70
2018-10-21T11:12:39.542Z,12.47
2018-10-21T11:15:08.874Z,10.67
2018-10-21T11:17:37.762Z,11.50
2018-10-21T11:20:06.975Z,12.37
2018-10-21T11:22:35.694Z,14.03
2018-10-21T11:25:05.224Z,13.47
2018-10-21T11:27:34.693Z,12.63
2018-10-21T11:30:03.333Z,13.43
2018-10-21T11:32:31.974Z,12.83
2018-10-21T11:35:00.601Z,11.43
2018-10-21T11:37:29.525Z,11.83
2018-10-21T11:39:59.095Z,14.57
2018-10-21T11:42:28.542Z,19.27
2018-10-21T11:44:57.338Z,19.67
2018-10-21T11:47:26.091Z,35.60
2018-10-21T11:49:54.791Z,16.80
2018-10-21T11:52:24.065Z,15.63
2018-10-21T11:54:52.858Z,20.17
2018-10-21T11:57:22.039Z,23.17
2018-10-21T11:59:51.622Z,26.10
2018-10-21T12:02:20.370Z,17.90
2018-10-21T12:04:49.130Z,16.80
2018-10-21T12:07:18.564Z,16.17
2018-10-21T12:09:47.986Z,21.17
2018-10-21T12:12:16.757Z,17.33
2018-10-21T12:14:45.475Z,12.47
2018-10-21T12:17:14.201Z,11.60
2018-10-21T12:19:43.036Z,14.73
2018-10-21T12:22:12.376Z,14.80
2018-10-21T12:24:41.328Z,13.10
2018-10-21T12:27:10.865Z,18.47
2018-10-21T12:29:39.702Z,16.53
2018-10-21T12:32:09.056Z,21.30
2018-10-21T12:34:38.015Z,13.80
2018-10-21T12:37:06.879Z,12.17
2018-10-21T12:39:35.919Z,19.10
2018-10-21T12:42:04.863Z,20.57
2018-10-21T12:44:33.680Z,18.83
2018-10-21T12:47:02.999Z,18.57
2018-10-21T12:49:31.886Z,14.43
2018-10-21T12:52:01.121Z,16.87
2018-10-21T12:54:30.898Z,16.90
2018-10-21T12:56:59.905Z,12.63
2018-10-21T12:59:29.262Z,14.33
2018-10-21T13:01:58.135Z,13.03
2018-10-21T13:04:27.522Z,13.23
2018-10-21T13:06:56.768Z,13.43
2018-10-21T13:09:26.209Z,12.50
2018-10-21T13:11:55.560Z,15.73
2018-10-21T13:14:24.277Z,15.50
2018-10-21T13:16:53.030Z,15.43
2018-10-21T13:19:21.757Z,21.70
2018-10-21T13:21:50.581Z,17.13
2018-10-21T13:24:19.224Z,14.47
2018-10-21T13:26:48.270Z,16.67
2018-10-21T13:29:16.982Z,16.87
2018-10-21T13:31:45.810Z,13.67
2018-10-21T13:34:15.140Z,25.00
2018-10-21T13:36:44.013Z,12.43
2018-10-21T13:39:14.453Z,23.43
2018-10-21T13:41:44.545Z,14.27
2018-10-21T13:44:13.310Z,11.87
2018-10-21T13:46:42.750Z,13.50
2018-10-21T13:49:12.515Z,11.63
2018-10-21T13:51:41.500Z,10.47
2018-10-21T13:54:10.433Z,10.30
2018-10-21T13:56:39.214Z,12.80
2018-10-21T13:59:07.904Z,9.43
2018-10-21T14:01:36.704Z,10.30
2018-10-21T14:04:05.498Z,10.50
2018-10-21T14:06:34.353Z,11.53
2018-10-21T14:09:03.205Z,11.80
2018-10-21T14:11:32.193Z,11.10
2018-10-21T14:14:00.843Z,11.00
2018-10-21T14:16:29.746Z,10.13
2018-10-21T14:18:58.548Z,11.33
2018-10-21T14:21:27.187Z,10.50
2018-10-21T14:23:55.850Z,13.33
2018-10-21T14:26:24.719Z,10.17
2018-10-21T14:28:53.465Z,14.67
2018-10-21T14:31:22.262Z,11.60
2018-10-21T14:33:50.937Z,10.53
2018-10-21T14:36:20.125Z,13.93
2018-10-21T14:38:49.016Z,10.60
2018-10-21T14:41:17.739Z,10.77
2018-10-21T14:43:46.426Z,36.07
2018-10-21T14:46:15.257Z,30.97
2018-10-21T14:48:44.051Z,14.40
2018-10-21T14:51:12.890Z,15.63
2018-10-21T14:53:41.774Z,40.27
2018-10-21T14:56:10.644Z,30.83
2018-10-21T14:58:39.523Z,30.67
2018-10-21T15:01:08.234Z,28.80
2018-10-21T15:03:37.075Z,47.67
2018-10-21T15:06:06.457Z,27.10
2018-10-21T15:08:35.283Z,38.17
2018-10-21T15:11:04.022Z,33.63
2018-10-21T15:13:32.708Z,20.87
2018-10-21T15:16:01.542Z,18.63
2018-10-21T15:18:31.302Z,14.20
2018-10-21T15:21:00.014Z,14.53
2018-10-21T15:23:28.841Z,27.60
2018-10-21T15:25:57.635Z,27.83
2018-10-21T15:28:26.580Z,24.93
2018-10-21T15:30:55.363Z,20.33
2018-10-21T15:33:24.138Z,24.93
2018-10-21T15:35:52.817Z,41.97
2018-10-21T15:38:21.507Z,65.30
2018-10-21T15:40:50.321Z,61.30
2018-10-21T15:43:19.015Z,50.33
2018-10-21T15:45:47.696Z,42.30
2018-10-21T15:48:16.632Z,80.90
2018-10-21T15:50:45.361Z,64.60
2018-10-21T15:53:14.198Z,47.60
2018-10-21T15:55:42.906Z,64.10
2018-10-21T15:58:11.642Z,47.50
2018-10-21T16:00:40.432Z,56.13
2018-10-21T16:03:09.106Z,97.50
2018-10-21T16:05:37.807Z,78.67
2018-10-21T16:08:06.628Z,61.53
2018-10-21T16:10:35.483Z,54.20
2018-10-21T16:13:04.617Z,99.53
2018-10-21T16:15:33.349Z,85.37
2018-10-21T16:18:02.218Z,74.50
2018-10-21T16:20:30.874Z,79.17
2018-10-21T16:22:59.573Z,173.20
2018-10-21T16:25:28.301Z,103.53
2018-10-21T16:27:57.286Z,654.77
2018-10-21T16:30:26.356Z,63.90
2018-10-21T16:32:55.085Z,70.53
2018-10-21T16:35:23.916Z,50.93
2018-10-21T16:37:53.590Z,88.47
2018-10-21T16:40:22.317Z,104.87
2018-10-21T16:42:51.021Z,98.57
2018-10-21T16:45:19.740Z,111.10
2018-10-21T16:47:48.798Z,146.77
2018-10-21T16:50:17.785Z,103.17
2018-10-21T16:52:47.250Z,132.33
2018-10-21T16:55:16.949Z,120.63
2018-10-21T16:57:46.584Z,135.37
2018-10-21T17:00:17.093Z,161.17
2018-10-21T17:02:45.934Z,140.30
2018-10-21T17:05:14.637Z,125.00
2018-10-21T17:07:43.597Z,105.57
2018-10-21T17:10:13.251Z,136.33
2018-10-21T17:12:42.424Z,271.57
2018-10-21T17:15:11.722Z,186.10
2018-10-21T17:17:41.745Z,179.40
2018-10-21T17:20:13.018Z,334.43
2018-10-21T17:22:42.547Z,377.10
2018-10-21T17:25:11.799Z,195.30
2018-10-21T17:27:40.841Z,229.60
2018-10-21T17:30:11.659Z,204.73
2018-10-21T17:32:40.482Z,481.13
2018-10-21T17:35:10.097Z,385.17
2018-10-21T17:37:39.286Z,391.93
2018-10-21T17:40:09.391Z,189.20
2018-10-21T17:42:41.081Z,66.80
2018-10-21T17:45:11.962Z,61.47
2018-10-21T17:47:40.794Z,123.03
2018-10-21T17:50:16.081Z,97.33
2018-10-21T17:52:45.188Z,90.70
2018-10-21T17:55:14.282Z,82.07
2018-10-21T17:57:43.110Z,87.47
2018-10-21T18:00:13.128Z,85.60
2018-10-21T18:02:42.101Z,98.50
2018-10-21T18:05:12.417Z,111.03
2018-10-21T18:07:41.735Z,169.80
2018-10-21T18:10:11.187Z,122.23
2018-10-21T18:12:40.781Z,103.87
2018-10-21T18:15:11.309Z,120.80
2018-10-21T18:17:40.972Z,139.27
2018-10-21T18:20:11.455Z,259.70
2018-10-21T18:22:40.670Z,208.27
2018-10-21T18:25:10.579Z,250.47
2018-10-21T18:27:40.407Z,188.97
2018-10-21T18:30:11.443Z,147.93
2018-10-21T18:32:40.493Z,161.43
2018-10-21T18:35:12.310Z,321.67
2018-10-21T18:37:41.598Z,357.00
2018-10-21T18:40:11.651Z,269.40
2018-10-21T18:42:41.846Z,221.70
2018-10-21T18:45:13.434Z,225.93
2018-10-21T18:47:42.995Z,169.17
2018-10-21T18:50:14.338Z,112.17
2018-10-21T18:52:43.636Z,192.67
2018-10-21T18:55:13.763Z,274.87
2018-10-21T18:57:42.917Z,318.13
2018-10-21T19:00:15.914Z,213.77
2018-10-21T19:02:44.599Z,243.43
2018-10-21T19:05:14.335Z,261.87
2018-10-21T19:07:43.506Z,257.87
2018-10-21T19:10:13.842Z,255.93
2018-10-21T19:12:43.221Z,335.00
2018-10-21T19:15:13.004Z,277.20
2018-10-21T19:17:42.333Z,279.60
2018-10-21T19:20:13.477Z,307.07
2018-10-21T19:22:42.619Z,820.37
2018-10-21T19:25:12.780Z,460.17
2018-10-21T19:27:42.611Z,213.43
2018-10-21T19:30:12.571Z,167.30
2018-10-21T19:32:42.183Z,131.97
2018-10-21T19:35:12.449Z,874.67
2018-10-21T19:37:41.289Z,212.73
2018-10-21T19:40:11.936Z,86.87
2018-10-21T19:42:41.354Z,55.00
2018-10-21T19:45:11.398Z,58.47
2018-10-21T19:47:40.533Z,90.27
2018-10-21T19:50:11.152Z,77.37
2018-10-21T19:52:40.700Z,77.33
2018-10-21T19:55:09.655Z,117.10
2018-10-21T19:57:38.559Z,74.87
2018-10-21T20:00:09.291Z,174.73
2018-10-21T20:02:38.057Z,168.23
2018-10-21T20:05:07.624Z,197.13
2018-10-21T20:07:36.715Z,212.30
2018-10-21T20:10:07.235Z,190.47
2018-10-21T20:12:36.086Z,175.60
2018-10-21T20:15:05.909Z,122.97
2018-10-21T20:17:34.695Z,112.43
2018-10-21T20:20:03.539Z,124.27
2018-10-21T20:22:33.923Z,181.27
2018-10-21T20:25:02.676Z,147.13
2018-10-21T20:27:31.571Z,118.50
2018-10-21T20:30:00.381Z,102.73
2018-10-21T20:32:29.313Z,115.33
2018-10-21T20:34:58.143Z,151.00
2018-10-21T20:37:26.960Z,155.87
2018-10-21T20:39:55.768Z,158.13
2018-10-21T20:42:24.725Z,224.73
2018-10-21T20:44:53.451Z,188.27
2018-10-21T20:47:22.163Z,182.17
2018-10-21T20:49:50.865Z,181.43
2018-10-21T20:52:20.318Z,185.07
2018-10-21T20:54:51.217Z,161.93
2018-10-21T20:57:19.905Z,238.77
2018-10-21T20:59:48.741Z,178.90
2018-10-21T21:02:17.503Z,135.47
2018-10-21T21:04:46.221Z,136.43
2018-10-21T21:07:14.948Z,161.53
2018-10-21T21:09:43.590Z,142.20
2018-10-21T21:12:12.300Z,123.50
2018-10-21T21:14:41.146Z,124.53
2018-10-21T21:17:09.800Z,134.13
2018-10-21T21:19:38.505Z,140.20
2018-10-21T21:22:07.418Z,177.27
2018-10-21T21:24:36.345Z,163.47
2018-10-21T21:27:05.372Z,137.90
2018-10-21T21:29:34.125Z,127.90
2018-10-21T21:32:02.761Z,195.13
2018-10-21T21:34:31.476Z,147.03
2018-10-21T21:37:00.182Z,151.37
2018-10-21T21:39:28.836Z,157.30
2018-10-21T21:41:57.620Z,241.37
2018-10-21T21:44:26.465Z,166.50
2018-10-21T21:46:55.168Z,133.90
2018-10-21T21:49:23.849Z,125.40
2018-10-21T21:51:52.562Z,124.03
2018-10-21T21:54:21.210Z,165.47
2018-10-21T21:56:49.938Z,108.20
2018-10-21T21:59:18.711Z,100.73
2018-10-21T22:01:47.535Z,86.10
2018-10-21T22:04:16.427Z,87.50
2018-10-21T22:06:45.193Z,74.87
2018-10-21T22:09:14.128Z,77.10
2018-10-21T22:11:42.787Z,79.73
2018-10-21T22:14:11.637Z,95.67
2018-10-21T22:16:40.328Z,118.80
2018-10-21T22:19:09.749Z,114.23
2018-10-21T22:21:39.125Z,116.30
2018-10-21T22:24:08.922Z,129.17
2018-10-21T22:26:38.593Z,104.93
2018-10-21T22:29:07.558Z,99.70
2018-10-21T22:31:36.208Z,140.70
2018-10-21T22:34:04.982Z,187.73
2018-10-21T22:36:33.766Z,144.70
2018-10-21T22:39:02.554Z,232.03
2018-10-21T22:41:31.229Z,246.00
2018-10-21T22:43:59.951Z,190.60
2018-10-21T22:46:29.096Z,174.07
2018-10-21T22:48:57.828Z,166.63
2018-10-21T22:51:26.544Z,221.40
2018-10-21T22:53:55.291Z,233.23
2018-10-21T22:56:24.166Z,194.90
2018-10-21T22:58:52.803Z,161.67
2018-10-21T23:01:21.449Z,135.63
2018-10-21T23:03:50.619Z,154.83
2018-10-21T23:06:19.473Z,122.57
2018-10-21T23:08:48.345Z,127.73
2018-10-21T23:11:17.054Z,145.63
2018-10-21T23:13:45.680Z,210.60
2018-10-21T23:16:14.705Z,454.90
2018-10-21T23:18:43.627Z,469.17
2018-10-21T23:21:12.402Z,396.67
2018-10-21T23:23:41.115Z,205.60
2018-10-21T23:26:09.939Z,224.33
2018-10-21T23:28:38.915Z,196.83
2018-10-21T23:31:07.703Z,257.07
2018-10-21T23:33:36.400Z,314.83
2018-10-21T23:36:05.207Z,350.23
2018-10-21T23:38:34.129Z,195.53
2018-10-21T23:41:02.830Z,172.70
2018-10-21T23:43:31.617Z,179.23
2018-10-21T23:46:00.378Z,194.90
2018-10-21T23:48:29.174Z,230.20
2018-10-21T23:50:57.809Z,188.60
2018-10-21T23:53:26.487Z,216.60
2018-10-21T23:55:55.093Z,226.67
2018-10-21T23:58:23.723Z,157.50
